Time;durP1;ratioP1;P1;durP2;ratioP2;P2;SDS_P1;SDS_P2;PMS_P1;PMS_P2;Temp;Humidity;BMP_temperature;BMP_pressure;BME280_temperature;BME280_humidity;BME280_pressure;Samples;Min_cycle;Max_cycle;Signal;HPM_P1;HPM_P2
2024/01/29 00:00:09;;;;;;;14.57;5.53;;;;;;;;;;5069892;28;20044;-73
2024/01/29 00:02:37;;;;;;;13.25;4.78;;;;;;;;;;5069740;28;20040;-73
2024/01/29 00:05:04;;;;;;;12.52;4.78;;;;;;;;;;5051573;28;20049;-73
2024/01/29 00:07:30;;;;;;;13.13;4.95;;;;;;;;;;5069313;28;20045;-73
2024/01/29 00:09:56;;;;;;;12.88;4.90;;;;;;;;;;5052093;28;20044;-73
2024/01/29 00:12:24;;;;;;;16.52;6.43;;;;;;;;;;5051863;28;20048;-73
2024/01/29 00:14:50;;;;;;;15.18;6.40;;;;;;;;;;5069346;28;20132;-73
2024/01/29 00:17:17;;;;;;;12.82;4.90;;;;;;;;;;5069334;28;20060;-73
2024/01/29 00:19:43;;;;;;;14.45;5.05;;;;;;;;;;5052042;28;20141;-73
2024/01/29 00:22:10;;;;;;;11.82;4.63;;;;;;;;;;5069556;28;20262;-73
2024/01/29 00:24:36;;;;;;;17.92;6.60;;;;;;;;;;5069107;28;20053;-72
2024/01/29 00:27:03;;;;;;;10.05;5.00;;;;;;;;;;5069417;28;20048;-72
2024/01/29 00:29:29;;;;;;;15.13;5.35;;;;;;;;;;5069241;28;20048;-72
2024/01/29 00:31:55;;;;;;;11.57;5.38;;;;;;;;;;5069266;28;20067;-73
2024/01/29 00:34:22;;;;;;;10.18;5.07;;;;;;;;;;5068315;28;20068;-73
2024/01/29 00:36:49;;;;;;;11.98;4.45;;;;;;;;;;5069299;28;20135;-72
2024/01/29 00:39:15;;;;;;;16.40;4.90;;;;;;;;;;5068766;28;20127;-72
2024/01/29 00:41:41;;;;;;;11.93;4.82;;;;;;;;;;5068968;28;20236;-73
2024/01/29 00:44:08;;;;;;;8.65;4.20;;;;;;;;;;5050789;28;20532;-72
2024/01/29 00:46:38;;;;;;;15.15;4.65;;;;;;;;;;5068689;28;20056;-73
2024/01/29 00:49:05;;;;;;;10.35;4.68;;;;;;;;;;5067942;28;20080;-73
2024/01/29 00:51:31;;;;;;;14.50;5.00;;;;;;;;;;5068974;28;20401;-72
2024/01/29 00:53:58;;;;;;;14.05;4.85;;;;;;;;;;5068453;28;20553;-73
2024/01/29 00:56:24;;;;;;;14.07;4.68;;;;;;;;;;5068231;28;20143;-72
2024/01/29 00:58:51;;;;;;;16.27;5.93;;;;;;;;;;5050439;28;20420;-72
2024/01/29 01:01:17;;;;;;;11.35;5.28;;;;;;;;;;5069205;28;20504;-73
2024/01/29 01:03:44;;;;;;;13.30;5.63;;;;;;;;;;5050763;28;20041;-72
2024/01/29 01:06:10;;;;;;;12.55;6.00;;;;;;;;;;5068417;28;20072;-76
2024/01/29 01:08:37;;;;;;;13.82;5.18;;;;;;;;;;5068719;28;20087;-72
2024/01/29 01:11:03;;;;;;;11.23;5.03;;;;;;;;;;5068620;28;20098;-72
2024/01/29 01:13:30;;;;;;;15.07;5.90;;;;;;;;;;5054812;28;20688;-72
2024/01/29 01:15:56;;;;;;;11.77;4.75;;;;;;;;;;5068607;28;20409;-72
2024/01/29 01:18:23;;;;;;;15.80;5.90;;;;;;;;;;5050390;28;20041;-72
2024/01/29 01:20:50;;;;;;;12.70;5.10;;;;;;;;;;5068528;28;20049;-73
2024/01/29 01:23:16;;;;;;;10.70;6.20;;;;;;;;;;5068236;28;20056;-72
2024/01/29 01:25:43;;;;;;;12.02;5.45;;;;;;;;;;5068168;28;20561;-73
2024/01/29 01:28:09;;;;;;;14.07;5.60;;;;;;;;;;5067854;28;20117;-72
2024/01/29 01:30:35;;;;;;;14.18;5.88;;;;;;;;;;5068335;28;20045;-73
2024/01/29 01:33:02;;;;;;;13.27;5.20;;;;;;;;;;5067717;28;20059;-72
2024/01/29 01:35:28;;;;;;;11.05;4.97;;;;;;;;;;5067653;28;20352;-72
2024/01/29 01:37:55;;;;;;;20.48;6.00;;;;;;;;;;5049462;28;20036;-72
2024/01/29 01:40:21;;;;;;;19.35;5.93;;;;;;;;;;5068026;28;20056;-73
2024/01/29 01:42:48;;;;;;;11.43;4.93;;;;;;;;;;5067675;28;20052;-73
2024/01/29 01:45:14;;;;;;;16.98;5.60;;;;;;;;;;5049571;28;20135;-73
2024/01/29 01:47:41;;;;;;;17.17;5.13;;;;;;;;;;5067301;28;20060;-73
2024/01/29 01:50:08;;;;;;;10.25;5.28;;;;;;;;;;5067897;28;20094;-72
2024/01/29 01:52:35;;;;;;;19.75;6.30;;;;;;;;;;5067500;28;20052;-72
2024/01/29 01:55:01;;;;;;;15.52;5.65;;;;;;;;;;5049701;28;20484;-73
2024/01/29 01:57:28;;;;;;;12.18;5.32;;;;;;;;;;5067192;28;20074;-73
2024/01/29 01:59:56;;;;;;;11.77;6.30;;;;;;;;;;5048873;28;20099;-73
2024/01/29 02:02:22;;;;;;;19.45;7.00;;;;;;;;;;5067448;28;20056;-72
2024/01/29 02:04:49;;;;;;;15.40;5.80;;;;;;;;;;5067591;28;20132;-72
2024/01/29 02:07:15;;;;;;;11.77;5.88;;;;;;;;;;5051782;28;20454;-72
2024/01/29 02:09:42;;;;;;;14.07;6.10;;;;;;;;;;5029659;28;20756;-72
2024/01/29 02:12:09;;;;;;;13.48;5.55;;;;;;;;;;5047462;28;20045;-72
2024/01/29 02:14:36;;;;;;;17.02;6.13;;;;;;;;;;5063627;28;20063;-73
2024/01/29 02:17:03;;;;;;;16.67;5.57;;;;;;;;;;5069344;28;20139;-73
2024/01/29 02:19:29;;;;;;;16.95;6.20;;;;;;;;;;5053820;28;20481;-73
2024/01/29 02:21:56;;;;;;;19.15;6.85;;;;;;;;;;5070277;28;20102;-72
2024/01/29 02:24:22;;;;;;;17.02;5.88;;;;;;;;;;5067362;28;20076;-72
2024/01/29 02:26:49;;;;;;;14.38;5.45;;;;;;;;;;5049274;28;20049;-72
2024/01/29 02:29:15;;;;;;;18.00;7.60;;;;;;;;;;5066908;28;20052;-72
2024/01/29 02:31:42;;;;;;;18.05;7.15;;;;;;;;;;5067001;28;20098;-72
2024/01/29 02:34:08;;;;;;;12.63;6.80;;;;;;;;;;5048645;28;20052;-72
2024/01/29 02:36:35;;;;;;;20.38;7.07;;;;;;;;;;5066543;28;20052;-72
2024/01/29 02:39:01;;;;;;;12.35;6.45;;;;;;;;;;5066544;28;20052;-72
2024/01/29 02:41:28;;;;;;;15.75;6.50;;;;;;;;;;5066686;28;20659;-72
2024/01/29 02:44:01;;;;;;;20.45;7.43;;;;;;;;;;5069002;28;20052;-73
2024/01/29 02:46:27;;;;;;;15.25;6.43;;;;;;;;;;5071756;28;20045;-73
2024/01/29 02:48:54;;;;;;;15.63;6.32;;;;;;;;;;5067994;28;20627;-73
2024/01/29 02:51:20;;;;;;;19.45;7.75;;;;;;;;;;5048575;28;20109;-72
2024/01/29 02:53:47;;;;;;;14.10;5.80;;;;;;;;;;5066972;28;20141;-72
2024/01/29 02:56:13;;;;;;;20.33;6.35;;;;;;;;;;5048996;28;20806;-72
2024/01/29 02:58:40;;;;;;;16.02;6.30;;;;;;;;;;5066279;28;20075;-72
2024/01/29 03:01:06;;;;;;;15.40;6.15;;;;;;;;;;5066375;28;20056;-72
2024/01/29 03:03:33;;;;;;;13.10;6.13;;;;;;;;;;5066486;28;20139;-72
2024/01/29 03:05:59;;;;;;;23.25;7.95;;;;;;;;;;5066253;28;20052;-72
2024/01/29 03:08:26;;;;;;;22.10;7.00;;;;;;;;;;5065879;28;20083;-72
2024/01/29 03:10:52;;;;;;;14.85;6.72;;;;;;;;;;5050453;28;20102;-72
2024/01/29 03:13:19;;;;;;;20.20;7.97;;;;;;;;;;5071866;28;20640;-73
2024/01/29 03:15:45;;;;;;;16.17;6.40;;;;;;;;;;5066931;28;20485;-72
2024/01/29 03:18:12;;;;;;;13.25;5.65;;;;;;;;;;5048022;28;20407;-72
2024/01/29 03:20:38;;;;;;;18.40;7.03;;;;;;;;;;5066551;28;20060;-72
2024/01/29 03:23:05;;;;;;;16.60;8.02;;;;;;;;;;5066012;28;20458;-73
2024/01/29 03:25:31;;;;;;;15.18;7.43;;;;;;;;;;5048616;28;20048;-72
2024/01/29 03:27:57;;;;;;;18.70;7.18;;;;;;;;;;5065836;28;20048;-72
2024/01/29 03:30:24;;;;;;;15.88;6.65;;;;;;;;;;5047558;28;20055;-72
2024/01/29 03:32:51;;;;;;;18.33;8.20;;;;;;;;;;5063578;28;20053;-72
2024/01/29 03:35:18;;;;;;;15.45;6.97;;;;;;;;;;5048338;28;20052;-72
2024/01/29 03:37:44;;;;;;;16.15;7.88;;;;;;;;;;5067170;28;20143;-72
2024/01/29 03:40:11;;;;;;;19.73;7.22;;;;;;;;;;5048649;28;20142;-72
2024/01/29 03:42:37;;;;;;;17.63;6.80;;;;;;;;;;5065854;28;20052;-72
2024/01/29 03:45:04;;;;;;;18.60;6.80;;;;;;;;;;5065730;28;20052;-72
2024/01/29 03:47:31;;;;;;;16.30;6.93;;;;;;;;;;5065569;28;20709;-72
2024/01/29 03:49:59;;;;;;;20.60;8.32;;;;;;;;;;5064676;28;20048;-73
2024/01/29 03:52:26;;;;;;;24.20;7.25;;;;;;;;;;5065425;28;20094;-72
2024/01/29 03:54:52;;;;;;;11.90;5.90;;;;;;;;;;5065507;28;20080;-72
2024/01/29 03:57:20;;;;;;;14.13;6.53;;;;;;;;;;5047877;28;20075;-72
2024/01/29 03:59:46;;;;;;;21.50;7.70;;;;;;;;;;5066005;28;20362;-73
2024/01/29 04:02:12;;;;;;;17.33;7.00;;;;;;;;;;5065421;28;20048;-72
2024/01/29 04:04:39;;;;;;;22.20;6.60;;;;;;;;;;5065983;28;20182;-72
2024/01/29 04:07:05;;;;;;;13.55;6.13;;;;;;;;;;5065645;28;20068;-72
2024/01/29 04:09:32;;;;;;;18.42;8.43;;;;;;;;;;5047442;28;20059;-72
2024/01/29 04:11:59;;;;;;;16.05;6.78;;;;;;;;;;5065723;28;20750;-72
2024/01/29 04:14:28;;;;;;;19.63;6.07;;;;;;;;;;5044405;28;20064;-72
2024/01/29 04:16:54;;;;;;;16.08;6.82;;;;;;;;;;5045882;28;20103;-73
2024/01/29 04:19:21;;;;;;;17.92;7.03;;;;;;;;;;5045580;28;20052;-72
2024/01/29 04:21:48;;;;;;;12.88;6.40;;;;;;;;;;5048164;28;20107;-72
2024/01/29 04:24:15;;;;;;;10.70;6.38;;;;;;;;;;5050657;28;20067;-72
2024/01/29 04:26:42;;;;;;;17.00;6.45;;;;;;;;;;5069777;28;20115;-72
2024/01/29 04:29:08;;;;;;;20.20;7.28;;;;;;;;;;5068006;28;20056;-72
2024/01/29 04:31:35;;;;;;;11.60;7.35;;;;;;;;;;5069454;28;20052;-73
2024/01/29 04:34:02;;;;;;;14.07;6.47;;;;;;;;;;5069249;28;20059;-72
2024/01/29 04:36:29;;;;;;;23.63;7.78;;;;;;;;;;5051111;28;20616;-72
2024/01/29 04:38:55;;;;;;;12.20;5.53;;;;;;;;;;5069006;28;20056;-73
2024/01/29 04:41:22;;;;;;;22.65;7.55;;;;;;;;;;5069397;28;20056;-72
2024/01/29 04:43:48;;;;;;;20.20;7.18;;;;;;;;;;5069150;28;20102;-72
2024/01/29 04:46:15;;;;;;;18.45;7.65;;;;;;;;;;5069180;28;20603;-72
2024/01/29 04:48:42;;;;;;;24.75;7.43;;;;;;;;;;5068476;28;20088;-73
2024/01/29 04:51:09;;;;;;;20.13;7.47;;;;;;;;;;5069274;28;20052;-72
2024/01/29 04:53:35;;;;;;;20.15;7.55;;;;;;;;;;5069079;28;20448;-72
2024/01/29 04:56:05;;;;;;;19.17;7.20;;;;;;;;;;5051778;28;20045;-72
2024/01/29 04:58:32;;;;;;;13.80;7.07;;;;;;;;;;5068619;28;20072;-72
2024/01/29 05:00:59;;;;;;;16.35;7.93;;;;;;;;;;5069494;28;20106;-72
2024/01/29 05:03:26;;;;;;;17.30;7.78;;;;;;;;;;5068987;28;20526;-72
2024/01/29 05:05:53;;;;;;;18.17;7.78;;;;;;;;;;5068887;28;20076;-72
2024/01/29 05:08:19;;;;;;;18.73;8.05;;;;;;;;;;5068312;28;20066;-72
2024/01/29 05:10:46;;;;;;;17.67;7.60;;;;;;;;;;5068858;28;20052;-72
2024/01/29 05:13:14;;;;;;;23.00;8.40;;;;;;;;;;5069097;28;20090;-72
2024/01/29 05:15:41;;;;;;;17.75;7.97;;;;;;;;;;5069297;28;20048;-72
2024/01/29 05:18:07;;;;;;;15.93;7.90;;;;;;;;;;5050849;28;20044;-72
2024/01/29 05:20:34;;;;;;;21.73;7.78;;;;;;;;;;5069216;28;20435;-72
2024/01/29 05:23:00;;;;;;;21.75;7.90;;;;;;;;;;5068514;28;20056;-72
2024/01/29 05:25:27;;;;;;;23.17;8.05;;;;;;;;;;5068804;28;20076;-73
2024/01/29 05:27:53;;;;;;;13.35;7.18;;;;;;;;;;5068611;28;20143;-72
2024/01/29 05:30:19;;;;;;;26.85;7.97;;;;;;;;;;5068822;28;20044;-72
2024/01/29 05:32:46;;;;;;;18.67;8.63;;;;;;;;;;5068700;28;20567;-72
2024/01/29 05:35:12;;;;;;;15.40;8.02;;;;;;;;;;5068823;28;20121;-73
2024/01/29 05:37:39;;;;;;;30.42;9.70;;;;;;;;;;5068820;28;20193;-72
2024/01/29 05:40:06;;;;;;;17.95;7.90;;;;;;;;;;5051476;28;20057;-73
2024/01/29 05:42:32;;;;;;;24.27;8.15;;;;;;;;;;5070552;28;20049;-73
2024/01/29 05:44:59;;;;;;;26.45;8.40;;;;;;;;;;5070892;28;20058;-72
2024/01/29 05:47:25;;;;;;;18.02;8.02;;;;;;;;;;5067705;28;20049;-72
2024/01/29 05:49:52;;;;;;;20.25;8.50;;;;;;;;;;5055489;28;20072;-74
2024/01/29 05:52:18;;;;;;;23.30;7.95;;;;;;;;;;5070691;28;20072;-72
2024/01/29 05:54:45;;;;;;;18.35;8.68;;;;;;;;;;5068192;28;20056;-73
2024/01/29 05:57:12;;;;;;;20.48;7.60;;;;;;;;;;5068008;28;20087;-73
2024/01/29 05:59:38;;;;;;;28.25;9.10;;;;;;;;;;5067457;28;20053;-73
2024/01/29 06:02:05;;;;;;;20.40;7.32;;;;;;;;;;5049484;28;20110;-72
2024/01/29 06:04:32;;;;;;;23.10;8.48;;;;;;;;;;5067584;28;20057;-72
2024/01/29 06:06:58;;;;;;;18.33;8.48;;;;;;;;;;5068842;28;20048;-72
2024/01/29 06:09:25;;;;;;;26.35;8.70;;;;;;;;;;5069563;28;20102;-73
2024/01/29 06:11:51;;;;;;;18.80;7.38;;;;;;;;;;5058946;28;20045;-72
2024/01/29 06:14:18;;;;;;;20.67;8.57;;;;;;;;;;5040816;28;20668;-74
2024/01/29 06:16:45;;;;;;;23.65;10.02;;;;;;;;;;5050272;28;20064;-72
2024/01/29 06:19:15;;;;;;;20.88;8.13;;;;;;;;;;5048582;28;20094;-72
2024/01/29 06:21:42;;;;;;;13.43;7.17;;;;;;;;;;5047319;28;20135;-72
2024/01/29 06:24:09;;;;;;;18.40;7.90;;;;;;;;;;5047213;28;20294;-72
2024/01/29 06:26:35;;;;;;;21.10;7.78;;;;;;;;;;5047140;28;20053;-72
2024/01/29 06:29:02;;;;;;;18.92;7.60;;;;;;;;;;5046853;28;20053;-72
2024/01/29 06:31:28;;;;;;;21.45;7.05;;;;;;;;;;5047320;28;20067;-72
2024/01/29 06:33:55;;;;;;;22.52;8.63;;;;;;;;;;5046754;28;20061;-72
2024/01/29 06:36:24;;;;;;;21.38;9.25;;;;;;;;;;5050661;28;20053;-72
2024/01/29 06:38:50;;;;;;;23.23;8.63;;;;;;;;;;5066767;28;20060;-72
2024/01/29 06:41:20;;;;;;;24.48;8.52;;;;;;;;;;5066922;28;20137;-72
2024/01/29 06:43:46;;;;;;;21.17;8.30;;;;;;;;;;5066884;28;20048;-72
2024/01/29 06:46:13;;;;;;;18.23;9.40;;;;;;;;;;5048580;28;20463;-72
2024/01/29 06:48:39;;;;;;;22.88;12.95;;;;;;;;;;5066339;28;20072;-71
2024/01/29 06:51:06;;;;;;;24.02;10.52;;;;;;;;;;5065458;28;20053;-71
2024/01/29 06:53:33;;;;;;;20.58;9.18;;;;;;;;;;5066792;28;20063;-72
2024/01/29 06:56:02;;;;;;;27.08;10.00;;;;;;;;;;5048979;28;20044;-72
2024/01/29 06:58:29;;;;;;;25.80;7.70;;;;;;;;;;5048488;28;20745;-72
2024/01/29 07:00:55;;;;;;;19.92;8.15;;;;;;;;;;5048866;28;20063;-72
2024/01/29 07:03:22;;;;;;;17.65;7.75;;;;;;;;;;5066563;28;20052;-71
2024/01/29 07:05:49;;;;;;;26.40;7.78;;;;;;;;;;5066848;28;20050;-71
2024/01/29 07:08:16;;;;;;;14.95;7.13;;;;;;;;;;5067059;28;20108;-72
2024/01/29 07:10:42;;;;;;;14.75;7.53;;;;;;;;;;5065298;28;20048;-72
2024/01/29 07:13:09;;;;;;;20.80;7.60;;;;;;;;;;5066015;28;20049;-72
2024/01/29 07:15:35;;;;;;;15.65;7.50;;;;;;;;;;5048751;28;20577;-72
2024/01/29 07:18:02;;;;;;;18.17;7.45;;;;;;;;;;5066131;28;20509;-72
2024/01/29 07:20:29;;;;;;;13.88;7.60;;;;;;;;;;5066274;28;20052;-72
2024/01/29 07:22:56;;;;;;;17.40;7.50;;;;;;;;;;5065974;28;20152;-72
2024/01/29 07:25:22;;;;;;;20.45;7.32;;;;;;;;;;5066140;28;20049;-73
2024/01/29 07:27:49;;;;;;;17.38;7.50;;;;;;;;;;5047888;28;20056;-72
2024/01/29 07:30:16;;;;;;;18.05;8.23;;;;;;;;;;5066454;28;20483;-72
2024/01/29 07:32:43;;;;;;;19.15;8.05;;;;;;;;;;5065488;28;20040;-72
2024/01/29 07:35:09;;;;;;;19.33;7.70;;;;;;;;;;5066402;28;20439;-72
2024/01/29 07:37:36;;;;;;;17.52;7.22;;;;;;;;;;5048139;28;20048;-73
2024/01/29 07:40:03;;;;;;;18.80;7.25;;;;;;;;;;5066421;28;20662;-71
2024/01/29 07:42:30;;;;;;;14.85;7.93;;;;;;;;;;5048456;28;20052;-71
2024/01/29 07:44:56;;;;;;;17.63;7.43;;;;;;;;;;5066783;28;20474;-72
2024/01/29 07:47:22;;;;;;;20.90;7.70;;;;;;;;;;5066080;28;20086;-74
2024/01/29 07:49:49;;;;;;;17.30;7.25;;;;;;;;;;5066504;28;20048;-73
2024/01/29 07:52:15;;;;;;;17.05;7.40;;;;;;;;;;5065843;28;20053;-73
2024/01/29 07:54:42;;;;;;;16.60;6.53;;;;;;;;;;5048338;28;20090;-73
2024/01/29 07:57:08;;;;;;;18.52;7.13;;;;;;;;;;5048100;28;20052;-72
2024/01/29 07:59:35;;;;;;;21.17;9.13;;;;;;;;;;5070116;28;20179;-71
2024/01/29 08:02:02;;;;;;;21.58;8.93;;;;;;;;;;5053180;28;20080;-72
2024/01/29 08:04:29;;;;;;;16.63;7.20;;;;;;;;;;5071285;28;20068;-71
2024/01/29 08:06:56;;;;;;;19.80;7.32;;;;;;;;;;5070274;28;20057;-72
2024/01/29 08:09:23;;;;;;;16.70;7.22;;;;;;;;;;5069647;28;20424;-72
2024/01/29 08:11:49;;;;;;;16.02;5.68;;;;;;;;;;5069418;28;20093;-72
2024/01/29 08:14:16;;;;;;;12.90;7.28;;;;;;;;;;5069675;28;20049;-71
2024/01/29 08:16:42;;;;;;;14.57;7.22;;;;;;;;;;5070063;28;20084;-72
2024/01/29 08:19:09;;;;;;;13.70;7.10;;;;;;;;;;5069782;28;20101;-72
2024/01/29 08:21:35;;;;;;;16.92;6.25;;;;;;;;;;5051989;28;20052;-72
2024/01/29 08:24:02;;;;;;;14.52;5.82;;;;;;;;;;5069492;28;20055;-72
2024/01/29 08:26:29;;;;;;;14.68;6.25;;;;;;;;;;5068862;28;20041;-72
2024/01/29 08:28:55;;;;;;;15.18;5.90;;;;;;;;;;5069453;28;20060;-72
2024/01/29 08:31:23;;;;;;;12.30;6.18;;;;;;;;;;5062352;28;20560;-72
2024/01/29 08:33:50;;;;;;;17.50;6.50;;;;;;;;;;5068730;28;20080;-73
2024/01/29 08:36:20;;;;;;;14.13;5.78;;;;;;;;;;5057003;28;20040;-69
2024/01/29 08:38:47;;;;;;;17.17;5.80;;;;;;;;;;5068673;28;20080;-73
2024/01/29 08:41:13;;;;;;;11.70;5.60;;;;;;;;;;5068624;28;20070;-74
2024/01/29 08:43:40;;;;;;;12.60;6.45;;;;;;;;;;5068469;28;20597;-74
2024/01/29 08:46:07;;;;;;;12.52;5.75;;;;;;;;;;5068838;28;20479;-73
2024/01/29 08:48:33;;;;;;;14.38;7.28;;;;;;;;;;5068123;28;20052;-74
2024/01/29 08:51:00;;;;;;;13.43;5.03;;;;;;;;;;5059806;28;20625;-74
2024/01/29 08:53:26;;;;;;;8.75;4.85;;;;;;;;;;5068822;28;20036;-75
2024/01/29 08:55:53;;;;;;;11.52;5.53;;;;;;;;;;5069418;28;20052;-78
2024/01/29 08:58:20;;;;;;;10.55;5.03;;;;;;;;;;5068940;28;20060;-75
2024/01/29 09:00:52;;;;;;;17.13;5.57;;;;;;;;;;5065796;28;20463;-78
2024/01/29 09:03:19;;;;;;;15.05;5.95;;;;;;;;;;5068366;28;20102;-75
2024/01/29 09:05:46;;;;;;;9.50;4.60;;;;;;;;;;5068187;28;20052;-74
2024/01/29 09:08:13;;;;;;;14.88;5.00;;;;;;;;;;5049403;28;20064;-77
2024/01/29 09:10:45;;;;;;;11.48;5.60;;;;;;;;;;5050267;28;20632;-73
2024/01/29 09:13:14;;;;;;;10.65;5.32;;;;;;;;;;5068167;28;20535;-74
2024/01/29 09:15:40;;;;;;;12.55;6.05;;;;;;;;;;5068068;28;20056;-77
2024/01/29 09:18:07;;;;;;;10.98;5.57;;;;;;;;;;5064283;28;20048;-72
2024/01/29 09:20:33;;;;;;;11.63;5.95;;;;;;;;;;5046694;28;20110;-75
2024/01/29 09:23:00;;;;;;;10.57;4.80;;;;;;;;;;5046590;28;20140;-76
2024/01/29 09:25:26;;;;;;;13.32;6.13;;;;;;;;;;5064699;28;20403;-77
2024/01/29 09:27:53;;;;;;;14.10;4.72;;;;;;;;;;5065806;28;20052;-71
2024/01/29 09:30:19;;;;;;;11.77;5.30;;;;;;;;;;5057644;28;20040;-77
2024/01/29 09:32:45;;;;;;;11.23;5.03;;;;;;;;;;5067421;28;20060;-76
2024/01/29 09:35:12;;;;;;;12.82;4.85;;;;;;;;;;5067155;28;20044;-75
2024/01/29 09:37:41;;;;;;;15.32;4.85;;;;;;;;;;5067342;28;20051;-73
2024/01/29 09:40:11;;;;;;;14.18;4.78;;;;;;;;;;5068413;28;20053;-70
2024/01/29 09:42:39;;;;;;;11.30;4.38;;;;;;;;;;5046852;28;20418;-71
2024/01/29 09:45:07;;;;;;;9.30;4.22;;;;;;;;;;5067132;28;20629;-75
2024/01/29 09:47:35;;;;;;;10.05;4.40;;;;;;;;;;5068576;28;20044;-72
2024/01/29 09:50:02;;;;;;;8.20;4.47;;;;;;;;;;5067065;28;20045;-72
2024/01/29 09:52:28;;;;;;;11.90;5.55;;;;;;;;;;5069385;28;20052;-76
2024/01/29 09:54:56;;;;;;;11.43;5.03;;;;;;;;;;5070938;28;20182;-73
2024/01/29 09:57:22;;;;;;;9.30;4.28;;;;;;;;;;5069271;28;20055;-77
2024/01/29 09:59:48;;;;;;;11.52;4.93;;;;;;;;;;5068880;28;20549;-74
2024/01/29 10:02:16;;;;;;;8.65;4.57;;;;;;;;;;5068689;28;20456;-75
2024/01/29 10:04:43;;;;;;;13.15;5.22;;;;;;;;;;5069345;28;20051;-71
2024/01/29 10:07:10;;;;;;;10.27;4.65;;;;;;;;;;5063939;28;20063;-71
2024/01/29 10:09:37;;;;;;;7.22;4.05;;;;;;;;;;5057577;28;20509;-70
2024/01/29 10:12:04;;;;;;;8.40;4.25;;;;;;;;;;5035610;28;20045;-71
2024/01/29 10:14:30;;;;;;;8.20;4.32;;;;;;;;;;5040595;28;20100;-72
2024/01/29 10:16:57;;;;;;;11.02;5.28;;;;;;;;;;5056943;28;20133;-71
2024/01/29 10:19:23;;;;;;;10.70;4.95;;;;;;;;;;5066607;28;20044;-71
2024/01/29 10:21:50;;;;;;;7.57;3.70;;;;;;;;;;5065025;28;20564;-71
2024/01/29 10:24:17;;;;;;;10.40;4.28;;;;;;;;;;5066367;28;20056;-72
2024/01/29 10:26:44;;;;;;;10.05;4.45;;;;;;;;;;5067077;28;20151;-72
2024/01/29 10:29:11;;;;;;;8.43;4.18;;;;;;;;;;5065984;28;20060;-70
2024/01/29 10:31:40;;;;;;;11.70;4.75;;;;;;;;;;5066555;28;20045;-67
2024/01/29 10:34:06;;;;;;;10.18;4.32;;;;;;;;;;5065468;28;20349;-72
2024/01/29 10:36:34;;;;;;;8.60;4.13;;;;;;;;;;5049805;28;20072;-71
2024/01/29 10:39:03;;;;;;;7.68;3.30;;;;;;;;;;5047710;28;20068;-70
2024/01/29 10:41:31;;;;;;;10.95;4.22;;;;;;;;;;5065166;28;20063;-70
2024/01/29 10:43:59;;;;;;;8.70;4.47;;;;;;;;;;5055967;28;20697;-71
2024/01/29 10:46:26;;;;;;;7.70;3.72;;;;;;;;;;5065301;28;20053;-69
2024/01/29 10:48:53;;;;;;;7.65;3.80;;;;;;;;;;5065723;28;20151;-70
2024/01/29 10:51:21;;;;;;;8.65;4.10;;;;;;;;;;5048040;28;20122;-66
2024/01/29 10:53:48;;;;;;;8.27;4.13;;;;;;;;;;5058019;28;20056;-67
2024/01/29 10:56:15;;;;;;;13.32;3.97;;;;;;;;;;5064266;28;20646;-69
2024/01/29 10:58:42;;;;;;;9.35;3.67;;;;;;;;;;5047724;28;20049;-71
2024/01/29 11:01:10;;;;;;;9.70;4.72;;;;;;;;;;5063464;28;20135;-71
2024/01/29 11:03:37;;;;;;;12.38;4.53;;;;;;;;;;5058017;28;20048;-69
2024/01/29 11:06:09;;;;;;;8.55;4.18;;;;;;;;;;5064313;28;20135;-69
2024/01/29 11:08:39;;;;;;;8.00;4.25;;;;;;;;;;5048801;28;20060;-70
2024/01/29 11:11:07;;;;;;;7.22;3.95;;;;;;;;;;5040584;28;20052;-72
2024/01/29 11:13:34;;;;;;;10.18;3.90;;;;;;;;;;5062606;28;20067;-72
2024/01/29 11:16:01;;;;;;;7.65;4.07;;;;;;;;;;5065520;28;20052;-72
2024/01/29 11:18:36;;;;;;;7.38;3.25;;;;;;;;;;5064614;28;20048;-73
2024/01/29 11:21:03;;;;;;;8.00;4.07;;;;;;;;;;5063826;28;20052;-74
2024/01/29 11:23:29;;;;;;;9.30;3.60;;;;;;;;;;5065016;28;20060;-71
2024/01/29 11:25:59;;;;;;;7.60;3.67;;;;;;;;;;5063827;28;20094;-74
2024/01/29 11:28:26;;;;;;;9.88;3.75;;;;;;;;;;5031736;28;20055;-71
2024/01/29 11:30:53;;;;;;;9.60;3.15;;;;;;;;;;5062366;28;20048;-71
2024/01/29 11:33:19;;;;;;;8.27;3.45;;;;;;;;;;5064353;28;20135;-71
2024/01/29 11:35:49;;;;;;;8.98;3.78;;;;;;;;;;5064273;28;20414;-70
2024/01/29 11:38:20;;;;;;;6.75;3.45;;;;;;;;;;5059022;28;20139;-71
2024/01/29 11:40:46;;;;;;;6.53;2.95;;;;;;;;;;5064201;28;20132;-70
2024/01/29 11:43:14;;;;;;;7.10;3.95;;;;;;;;;;5065684;28;20045;-69
2024/01/29 11:45:41;;;;;;;9.80;3.90;;;;;;;;;;5047614;28;20048;-71
2024/01/29 11:48:11;;;;;;;8.32;3.65;;;;;;;;;;5051881;28;20053;-67
2024/01/29 11:50:38;;;;;;;9.00;3.83;;;;;;;;;;5043867;28;20056;-63
2024/01/29 11:53:08;;;;;;;7.10;3.40;;;;;;;;;;5060975;28;20052;-70
2024/01/29 11:55:35;;;;;;;5.22;2.83;;;;;;;;;;5057093;28;20062;-71
2024/01/29 11:58:01;;;;;;;6.60;2.70;;;;;;;;;;5065233;28;20055;-71
2024/01/29 12:00:28;;;;;;;5.72;3.13;;;;;;;;;;5065509;28;20150;-66
2024/01/29 12:02:55;;;;;;;7.50;3.15;;;;;;;;;;5065030;28;20040;-69
2024/01/29 12:05:21;;;;;;;7.97;3.22;;;;;;;;;;5061384;28;20048;-70
2024/01/29 12:07:48;;;;;;;11.55;3.88;;;;;;;;;;5054745;28;20059;-70
2024/01/29 12:10:18;;;;;;;6.40;3.33;;;;;;;;;;5059400;28;20044;-69
2024/01/29 12:12:44;;;;;;;6.78;2.58;;;;;;;;;;5061600;28;20048;-65
2024/01/29 12:15:11;;;;;;;7.28;3.53;;;;;;;;;;5041489;28;20087;-69
2024/01/29 12:17:44;;;;;;;5.95;2.58;;;;;;;;;;5032366;28;20044;-70
2024/01/29 12:20:11;;;;;;;5.90;2.20;;;;;;;;;;5058619;28;20062;-67
2024/01/29 12:22:38;;;;;;;6.50;2.30;;;;;;;;;;5064873;28;20067;-68
2024/01/29 12:25:11;;;;;;;11.23;2.95;;;;;;;;;;5065106;28;20049;-69
2024/01/29 12:27:39;;;;;;;5.00;2.53;;;;;;;;;;5060042;28;20052;-69
2024/01/29 12:30:13;;;;;;;5.15;2.53;;;;;;;;;;5052658;28;20510;-69
2024/01/29 12:32:42;;;;;;;5.43;2.28;;;;;;;;;;5061880;28;21554;-68
2024/01/29 12:35:23;;;;;;;7.03;3.10;;;;;;;;;;5064866;28;20464;-68
2024/01/29 12:37:52;;;;;;;5.30;2.40;;;;;;;;;;5064379;28;20074;-69
2024/01/29 12:40:19;;;;;;;7.40;3.03;;;;;;;;;;5064573;28;20408;-68
2024/01/29 12:42:45;;;;;;;5.10;2.65;;;;;;;;;;5065074;28;20053;-71
2024/01/29 12:45:18;;;;;;;7.03;2.83;;;;;;;;;;5067018;28;20071;-72
2024/01/29 12:47:44;;;;;;;6.90;2.42;;;;;;;;;;5067841;28;20055;-66
2024/01/29 12:50:15;;;;;;;5.75;2.45;;;;;;;;;;5066485;28;20122;-69
2024/01/29 12:52:42;;;;;;;5.53;2.50;;;;;;;;;;5054643;28;20554;-68
2024/01/29 12:55:08;;;;;;;5.97;2.65;;;;;;;;;;5049441;28;20341;-70
2024/01/29 12:57:34;;;;;;;6.57;2.95;;;;;;;;;;5067771;28;20048;-72
2024/01/29 13:00:01;;;;;;;5.05;2.42;;;;;;;;;;5068226;28;20045;-68
2024/01/29 13:02:28;;;;;;;7.82;2.47;;;;;;;;;;5066132;28;20067;-69
2024/01/29 13:04:54;;;;;;;6.40;2.42;;;;;;;;;;5068170;28;20739;-71
2024/01/29 13:07:23;;;;;;;5.00;2.30;;;;;;;;;;5038079;28;20122;-70
2024/01/29 13:09:49;;;;;;;5.28;2.15;;;;;;;;;;5067657;28;20078;-70
2024/01/29 13:12:18;;;;;;;3.47;2.10;;;;;;;;;;5053473;28;20052;-70
2024/01/29 13:14:45;;;;;;;4.03;2.40;;;;;;;;;;5066204;28;20055;-66
2024/01/29 13:17:11;;;;;;;4.85;2.40;;;;;;;;;;5067446;28;20052;-67
2024/01/29 13:19:38;;;;;;;4.88;2.53;;;;;;;;;;5068429;28;20056;-65
2024/01/29 13:22:04;;;;;;;5.63;2.45;;;;;;;;;;5049830;28;20102;-66
2024/01/29 13:24:31;;;;;;;6.10;2.67;;;;;;;;;;5051587;28;20053;-65
2024/01/29 13:26:58;;;;;;;6.28;2.35;;;;;;;;;;5064235;28;20047;-67
2024/01/29 13:29:24;;;;;;;6.63;2.60;;;;;;;;;;5054180;28;20110;-70
2024/01/29 13:31:51;;;;;;;6.55;3.10;;;;;;;;;;5067776;28;20060;-65
2024/01/29 13:34:20;;;;;;;5.15;2.53;;;;;;;;;;5049055;28;20080;-66
2024/01/29 13:36:51;;;;;;;6.97;2.73;;;;;;;;;;5066950;28;20044;-68
2024/01/29 13:39:18;;;;;;;6.13;2.38;;;;;;;;;;5058597;28;20109;-65
2024/01/29 13:41:44;;;;;;;6.90;2.83;;;;;;;;;;5064331;28;20051;-64
2024/01/29 13:44:11;;;;;;;7.55;2.42;;;;;;;;;;5059871;28;20041;-65
2024/01/29 13:46:37;;;;;;;5.53;2.90;;;;;;;;;;5063890;28;20079;-67
2024/01/29 13:49:04;;;;;;;7.55;3.05;;;;;;;;;;5050988;28;20572;-68
2024/01/29 13:51:31;;;;;;;9.13;3.00;;;;;;;;;;5048820;28;20040;-68
2024/01/29 13:53:58;;;;;;;6.10;3.40;;;;;;;;;;5049305;28;20552;-65
2024/01/29 13:56:24;;;;;;;7.55;2.40;;;;;;;;;;5048472;28;20521;-69
2024/01/29 13:58:52;;;;;;;4.95;2.35;;;;;;;;;;5066593;28;20139;-67
2024/01/29 14:01:19;;;;;;;7.07;2.63;;;;;;;;;;5067487;28;20131;-70
2024/01/29 14:03:46;;;;;;;8.32;2.40;;;;;;;;;;5066670;28;20068;-67
2024/01/29 14:06:13;;;;;;;4.97;2.80;;;;;;;;;;5054913;28;20110;-66
2024/01/29 14:08:40;;;;;;;9.13;3.28;;;;;;;;;;5062313;28;20585;-65
2024/01/29 14:11:07;;;;;;;4.78;2.63;;;;;;;;;;5050635;28;20071;-65
2024/01/29 14:13:35;;;;;;;6.28;3.10;;;;;;;;;;5064158;28;20059;-66
2024/01/29 14:16:01;;;;;;;8.13;3.17;;;;;;;;;;5065682;28;20079;-67
2024/01/29 14:18:31;;;;;;;4.82;2.15;;;;;;;;;;5065338;28;20586;-67
2024/01/29 14:20:58;;;;;;;3.92;2.33;;;;;;;;;;5066943;28;20040;-68
2024/01/29 14:23:24;;;;;;;7.25;3.40;;;;;;;;;;5062203;28;20049;-68
2024/01/29 14:25:51;;;;;;;4.75;2.47;;;;;;;;;;5066368;28;20058;-69
2024/01/29 14:28:17;;;;;;;5.05;2.17;;;;;;;;;;5065481;28;20071;-66
2024/01/29 14:30:44;;;;;;;6.25;2.85;;;;;;;;;;5049896;28;20037;-69